sensor_id;sensor_type;location;lat;lon;timestamp;temperature;humidity
4727;DHT22;2377;51.734;8.950;2023-08-07T00:02:19;13.60;99.90
4727;DHT22;2377;51.734;8.950;2023-08-07T00:04:46;13.60;99.90
4727;DHT22;2377;51.734;8.950;2023-08-07T00:07:14;13.60;99.90
4727;DHT22;2377;51.734;8.950;2023-08-07T00:09:41;13.60;99.90
4727;DHT22;2377;51.734;8.950;2023-08-07T00:12:09;13.60;99.90
4727;DHT22;2377;51.734;8.950;2023-08-07T00:14:36;13.50;99.90
4727;DHT22;2377;51.734;8.950;2023-08-07T00:17:05;13.60;99.90
4727;DHT22;2377;51.734;8.950;2023-08-07T00:19:32;13.50;99.90
4727;DHT22;2377;51.734;8.950;2023-08-07T00:22:00;13.60;99.90
4727;DHT22;2377;51.734;8.950;2023-08-07T00:24:27;13.60;99.90
4727;DHT22;2377;51.734;8.950;2023-08-07T00:26:54;13.60;99.90
4727;DHT22;2377;51.734;8.950;2023-08-07T00:29:21;13.60;99.90
4727;DHT22;2377;51.734;8.950;2023-08-07T00:31:48;13.50;99.90
4727;DHT22;2377;51.734;8.950;2023-08-07T00:34:17;13.50;99.90
4727;DHT22;2377;51.734;8.950;2023-08-07T00:36:44;13.60;99.90
4727;DHT22;2377;51.734;8.950;2023-08-07T00:39:11;13.50;99.90
4727;DHT22;2377;51.734;8.950;2023-08-07T00:41:38;13.60;99.90
4727;DHT22;2377;51.734;8.950;2023-08-07T00:44:05;13.50;99.90
4727;DHT22;2377;51.734;8.950;2023-08-07T00:46:32;13.50;99.90
4727;DHT22;2377;51.734;8.950;2023-08-07T00:49:00;13.50;99.90
4727;DHT22;2377;51.734;8.950;2023-08-07T00:51:30;13.50;99.90
4727;DHT22;2377;51.734;8.950;2023-08-07T00:53:58;13.50;99.90
4727;DHT22;2377;51.734;8.950;2023-08-07T00:56:27;13.50;99.90
4727;DHT22;2377;51.734;8.950;2023-08-07T00:58:55;13.50;99.90
4727;DHT22;2377;51.734;8.950;2023-08-07T01:01:22;13.50;99.90
4727;DHT22;2377;51.734;8.950;2023-08-07T01:03:49;13.50;99.90
4727;DHT22;2377;51.734;8.950;2023-08-07T01:06:17;13.40;99.90
4727;DHT22;2377;51.734;8.950;2023-08-07T01:08:46;13.40;99.90
4727;DHT22;2377;51.734;8.950;2023-08-07T01:11:22;13.40;99.90
4727;DHT22;2377;51.734;8.950;2023-08-07T01:14:02;13.40;99.90
4727;DHT22;2377;51.734;8.950;2023-08-07T01:16:40;13.50;99.90
4727;DHT22;2377;51.734;8.950;2023-08-07T01:19:22;13.40;99.90
4727;DHT22;2377;51.734;8.950;2023-08-07T01:22:04;13.40;99.90
4727;DHT22;2377;51.734;8.950;2023-08-07T01:24:32;13.40;99.90
4727;DHT22;2377;51.734;8.950;2023-08-07T01:27:07;13.40;99.90
4727;DHT22;2377;51.734;8.950;2023-08-07T01:29:54;13.30;99.90
4727;DHT22;2377;51.734;8.950;2023-08-07T01:32:33;13.40;99.90
4727;DHT22;2377;51.734;8.950;2023-08-07T01:35:03;13.40;99.90
4727;DHT22;2377;51.734;8.950;2023-08-07T01:37:37;13.50;99.90
4727;DHT22;2377;51.734;8.950;2023-08-07T01:40:08;13.50;99.90
4727;DHT22;2377;51.734;8.950;2023-08-07T01:42:37;13.40;99.90
4727;DHT22;2377;51.734;8.950;2023-08-07T01:45:05;13.50;99.90
4727;DHT22;2377;51.734;8.950;2023-08-07T01:47:32;13.50;99.90
4727;DHT22;2377;51.734;8.950;2023-08-07T01:50:00;13.40;99.90
4727;DHT22;2377;51.734;8.950;2023-08-07T01:52:28;13.40;99.90
4727;DHT22;2377;51.734;8.950;2023-08-07T01:54:56;13.40;99.90
4727;DHT22;2377;51.734;8.950;2023-08-07T01:57:24;13.50;99.90
4727;DHT22;2377;51.734;8.950;2023-08-07T01:59:52;13.50;99.90
4727;DHT22;2377;51.734;8.950;2023-08-07T02:02:19;13.50;99.90
4727;DHT22;2377;51.734;8.950;2023-08-07T02:04:46;13.50;99.90
4727;DHT22;2377;51.734;8.950;2023-08-07T02:07:13;13.40;99.90
4727;DHT22;2377;51.734;8.950;2023-08-07T02:09:40;13.50;99.90
4727;DHT22;2377;51.734;8.950;2023-08-07T02:12:09;13.50;99.90
4727;DHT22;2377;51.734;8.950;2023-08-07T02:14:36;13.50;99.90
4727;DHT22;2377;51.734;8.950;2023-08-07T02:17:04;13.50;99.90
4727;DHT22;2377;51.734;8.950;2023-08-07T02:19:31;13.50;99.90
4727;DHT22;2377;51.734;8.950;2023-08-07T02:21:58;13.40;99.90
4727;DHT22;2377;51.734;8.950;2023-08-07T02:24:26;13.40;99.90
4727;DHT22;2377;51.734;8.950;2023-08-07T02:26:53;13.40;99.90
4727;DHT22;2377;51.734;8.950;2023-08-07T02:29:21;13.50;99.90
4727;DHT22;2377;51.734;8.950;2023-08-07T02:31:49;13.50;99.90
4727;DHT22;2377;51.734;8.950;2023-08-07T02:34:16;13.50;99.90
4727;DHT22;2377;51.734;8.950;2023-08-07T02:36:43;13.50;99.90
4727;DHT22;2377;51.734;8.950;2023-08-07T02:39:10;13.40;99.90
4727;DHT22;2377;51.734;8.950;2023-08-07T02:41:37;13.50;99.90
4727;DHT22;2377;51.734;8.950;2023-08-07T02:44:04;13.40;99.90
4727;DHT22;2377;51.734;8.950;2023-08-07T02:46:33;13.40;99.90
4727;DHT22;2377;51.734;8.950;2023-08-07T02:49:01;13.40;99.90
4727;DHT22;2377;51.734;8.950;2023-08-07T02:51:29;13.40;99.90
4727;DHT22;2377;51.734;8.950;2023-08-07T02:53:56;13.40;99.90
4727;DHT22;2377;51.734;8.950;2023-08-07T02:56:23;13.40;99.90
4727;DHT22;2377;51.734;8.950;2023-08-07T02:58:50;13.30;99.90
4727;DHT22;2377;51.734;8.950;2023-08-07T03:01:18;13.40;99.90
4727;DHT22;2377;51.734;8.950;2023-08-07T03:03:47;13.50;99.90
4727;DHT22;2377;51.734;8.950;2023-08-07T03:06:14;13.40;99.90
4727;DHT22;2377;51.734;8.950;2023-08-07T03:08:43;13.40;99.90
4727;DHT22;2377;51.734;8.950;2023-08-07T03:11:10;13.40;99.90
4727;DHT22;2377;51.734;8.950;2023-08-07T03:13:37;13.30;99.90
4727;DHT22;2377;51.734;8.950;2023-08-07T03:16:05;13.40;99.90
4727;DHT22;2377;51.734;8.950;2023-08-07T03:18:33;13.40;99.90
4727;DHT22;2377;51.734;8.950;2023-08-07T03:21:01;13.50;99.90
4727;DHT22;2377;51.734;8.950;2023-08-07T03:23:29;13.40;99.90
4727;DHT22;2377;51.734;8.950;2023-08-07T03:26:02;13.40;99.90
4727;DHT22;2377;51.734;8.950;2023-08-07T03:28:30;13.40;99.90
4727;DHT22;2377;51.734;8.950;2023-08-07T03:30:58;13.40;99.90
4727;DHT22;2377;51.734;8.950;2023-08-07T03:33:25;13.40;99.90
4727;DHT22;2377;51.734;8.950;2023-08-07T03:35:53;13.40;99.90
4727;DHT22;2377;51.734;8.950;2023-08-07T03:38:21;13.50;99.90
4727;DHT22;2377;51.734;8.950;2023-08-07T03:40:49;13.50;99.90
4727;DHT22;2377;51.734;8.950;2023-08-07T03:43:16;13.40;99.90
4727;DHT22;2377;51.734;8.950;2023-08-07T03:45:43;13.40;99.90
4727;DHT22;2377;51.734;8.950;2023-08-07T03:48:10;13.50;99.90
4727;DHT22;2377;51.734;8.950;2023-08-07T03:50:37;13.50;99.90
4727;DHT22;2377;51.734;8.950;2023-08-07T03:53:06;13.50;99.90
4727;DHT22;2377;51.734;8.950;2023-08-07T03:55:35;13.50;99.90
4727;DHT22;2377;51.734;8.950;2023-08-07T03:58:02;13.50;99.90
4727;DHT22;2377;51.734;8.950;2023-08-07T04:00:29;13.50;99.90
4727;DHT22;2377;51.734;8.950;2023-08-07T04:02:56;13.50;99.90
4727;DHT22;2377;51.734;8.950;2023-08-07T04:05:24;13.50;99.90
4727;DHT22;2377;51.734;8.950;2023-08-07T04:07:51;13.50;99.90
4727;DHT22;2377;51.734;8.950;2023-08-07T04:10:18;13.50;99.90
4727;DHT22;2377;51.734;8.950;2023-08-07T04:12:47;13.50;99.90
4727;DHT22;2377;51.734;8.950;2023-08-07T04:15:14;13.50;99.90
4727;DHT22;2377;51.734;8.950;2023-08-07T04:17:42;13.60;99.90
4727;DHT22;2377;51.734;8.950;2023-08-07T04:20:09;13.60;99.90
4727;DHT22;2377;51.734;8.950;2023-08-07T04:22:36;13.60;99.90
4727;DHT22;2377;51.734;8.950;2023-08-07T04:25:04;13.60;99.90
4727;DHT22;2377;51.734;8.950;2023-08-07T04:27:32;13.60;99.90
4727;DHT22;2377;51.734;8.950;2023-08-07T04:30:00;13.50;99.90
4727;DHT22;2377;51.734;8.950;2023-08-07T04:32:28;13.60;99.90
4727;DHT22;2377;51.734;8.950;2023-08-07T04:34:55;13.60;99.90
4727;DHT22;2377;51.734;8.950;2023-08-07T04:37:22;13.50;99.90
4727;DHT22;2377;51.734;8.950;2023-08-07T04:39:49;13.60;99.90
4727;DHT22;2377;51.734;8.950;2023-08-07T04:42:16;13.60;99.90
4727;DHT22;2377;51.734;8.950;2023-08-07T04:44:43;13.60;99.90
4727;DHT22;2377;51.734;8.950;2023-08-07T04:47:12;13.70;99.90
4727;DHT22;2377;51.734;8.950;2023-08-07T04:49:39;13.60;99.90
4727;DHT22;2377;51.734;8.950;2023-08-07T04:52:07;13.60;99.90
4727;DHT22;2377;51.734;8.950;2023-08-07T04:54:34;13.60;99.90
4727;DHT22;2377;51.734;8.950;2023-08-07T04:57:01;13.70;99.90
4727;DHT22;2377;51.734;8.950;2023-08-07T04:59:29;13.60;99.90
4727;DHT22;2377;51.734;8.950;2023-08-07T05:01:57;13.60;99.90
4727;DHT22;2377;51.734;8.950;2023-08-07T05:04:26;13.60;99.90
4727;DHT22;2377;51.734;8.950;2023-08-07T05:06:53;13.60;99.90
4727;DHT22;2377;51.734;8.950;2023-08-07T05:09:20;13.60;99.90
4727;DHT22;2377;51.734;8.950;2023-08-07T05:11:48;13.60;99.90
4727;DHT22;2377;51.734;8.950;2023-08-07T05:14:15;13.60;99.90
4727;DHT22;2377;51.734;8.950;2023-08-07T05:16:42;13.60;99.90
4727;DHT22;2377;51.734;8.950;2023-08-07T05:19:09;13.60;99.90
4727;DHT22;2377;51.734;8.950;2023-08-07T05:21:38;13.60;99.90
4727;DHT22;2377;51.734;8.950;2023-08-07T05:24:05;13.60;99.90
4727;DHT22;2377;51.734;8.950;2023-08-07T05:26:32;13.60;99.90
4727;DHT22;2377;51.734;8.950;2023-08-07T05:28:59;13.60;99.90
4727;DHT22;2377;51.734;8.950;2023-08-07T05:31:26;13.50;99.90
4727;DHT22;2377;51.734;8.950;2023-08-07T05:33:53;13.50;99.90
4727;DHT22;2377;51.734;8.950;2023-08-07T05:36:21;13.40;99.90
4727;DHT22;2377;51.734;8.950;2023-08-07T05:38:49;13.50;99.90
4727;DHT22;2377;51.734;8.950;2023-08-07T05:41:16;13.50;99.90
4727;DHT22;2377;51.734;8.950;2023-08-07T05:43:45;13.50;99.90
4727;DHT22;2377;51.734;8.950;2023-08-07T05:46:12;13.50;99.90
4727;DHT22;2377;51.734;8.950;2023-08-07T05:48:39;13.50;99.90
4727;DHT22;2377;51.734;8.950;2023-08-07T05:51:06;13.60;99.90
4727;DHT22;2377;51.734;8.950;2023-08-07T05:53:35;13.50;99.90
4727;DHT22;2377;51.734;8.950;2023-08-07T05:56:04;13.50;99.90
4727;DHT22;2377;51.734;8.950;2023-08-07T05:58:31;13.60;99.90
4727;DHT22;2377;51.734;8.950;2023-08-07T06:00:58;13.60;99.90
4727;DHT22;2377;51.734;8.950;2023-08-07T06:03:26;13.50;99.90
4727;DHT22;2377;51.734;8.950;2023-08-07T06:05:53;13.50;99.90
4727;DHT22;2377;51.734;8.950;2023-08-07T06:08:20;13.60;99.90
4727;DHT22;2377;51.734;8.950;2023-08-07T06:10:48;13.60;99.90
4727;DHT22;2377;51.734;8.950;2023-08-07T06:13:16;13.60;99.90
4727;DHT22;2377;51.734;8.950;2023-08-07T06:15:44;13.60;99.90
4727;DHT22;2377;51.734;8.950;2023-08-07T06:18:11;13.60;99.90
4727;DHT22;2377;51.734;8.950;2023-08-07T06:20:38;13.60;99.90
4727;DHT22;2377;51.734;8.950;2023-08-07T06:23:05;13.60;99.90
4727;DHT22;2377;51.734;8.950;2023-08-07T06:25:32;13.60;99.90
4727;DHT22;2377;51.734;8.950;2023-08-07T06:28:00;13.60;99.90
4727;DHT22;2377;51.734;8.950;2023-08-07T06:30:29;13.60;99.90
4727;DHT22;2377;51.734;8.950;2023-08-07T06:32:57;13.70;99.90
4727;DHT22;2377;51.734;8.950;2023-08-07T06:35:24;13.70;99.90
4727;DHT22;2377;51.734;8.950;2023-08-07T06:37:52;13.60;99.90
4727;DHT22;2377;51.734;8.950;2023-08-07T06:40:19;13.60;99.90
4727;DHT22;2377;51.734;8.950;2023-08-07T06:42:46;13.60;99.90
4727;DHT22;2377;51.734;8.950;2023-08-07T06:45:13;13.60;99.90
4727;DHT22;2377;51.734;8.950;2023-08-07T06:47:42;13.60;99.90
4727;DHT22;2377;51.734;8.950;2023-08-07T06:50:09;13.70;99.90
4727;DHT22;2377;51.734;8.950;2023-08-07T06:52:38;13.80;99.90
4727;DHT22;2377;51.734;8.950;2023-08-07T06:55:06;13.80;99.90
4727;DHT22;2377;51.734;8.950;2023-08-07T06:57:34;13.80;99.90
4727;DHT22;2377;51.734;8.950;2023-08-07T07:00:01;13.80;99.90
4727;DHT22;2377;51.734;8.950;2023-08-07T07:02:28;13.80;99.90
4727;DHT22;2377;51.734;8.950;2023-08-07T07:04:57;13.80;99.90
4727;DHT22;2377;51.734;8.950;2023-08-07T07:07:24;13.60;99.90
4727;DHT22;2377;51.734;8.950;2023-08-07T07:09:51;13.60;99.90
4727;DHT22;2377;51.734;8.950;2023-08-07T07:12:18;13.60;99.90
4727;DHT22;2377;51.734;8.950;2023-08-07T07:14:46;13.60;99.90
4727;DHT22;2377;51.734;8.950;2023-08-07T07:17:13;13.70;99.90
4727;DHT22;2377;51.734;8.950;2023-08-07T07:19:40;13.60;99.90
4727;DHT22;2377;51.734;8.950;2023-08-07T07:22:08;13.70;99.90
4727;DHT22;2377;51.734;8.950;2023-08-07T07:24:36;13.70;99.90
4727;DHT22;2377;51.734;8.950;2023-08-07T07:27:03;13.70;99.90
4727;DHT22;2377;51.734;8.950;2023-08-07T07:29:34;13.80;99.90
4727;DHT22;2377;51.734;8.950;2023-08-07T07:32:01;13.70;99.90
4727;DHT22;2377;51.734;8.950;2023-08-07T07:34:28;13.80;99.90
4727;DHT22;2377;51.734;8.950;2023-08-07T07:36:55;13.80;99.90
4727;DHT22;2377;51.734;8.950;2023-08-07T07:39:24;13.80;99.90
4727;DHT22;2377;51.734;8.950;2023-08-07T07:41:51;13.80;99.90
4727;DHT22;2377;51.734;8.950;2023-08-07T07:44:18;13.70;99.90
4727;DHT22;2377;51.734;8.950;2023-08-07T07:46:45;13.70;99.90
4727;DHT22;2377;51.734;8.950;2023-08-07T07:49:12;13.70;99.90
4727;DHT22;2377;51.734;8.950;2023-08-07T07:51:39;13.70;99.90
4727;DHT22;2377;51.734;8.950;2023-08-07T07:54:08;13.70;99.90
4727;DHT22;2377;51.734;8.950;2023-08-07T07:56:37;13.80;99.90
4727;DHT22;2377;51.734;8.950;2023-08-07T07:59:04;13.80;99.90
4727;DHT22;2377;51.734;8.950;2023-08-07T08:01:31;13.80;99.90
4727;DHT22;2377;51.734;8.950;2023-08-07T08:03:58;13.80;99.90
4727;DHT22;2377;51.734;8.950;2023-08-07T08:06:25;13.70;99.90
4727;DHT22;2377;51.734;8.950;2023-08-07T08:08:53;13.70;99.90
4727;DHT22;2377;51.734;8.950;2023-08-07T08:11:20;13.70;99.90
4727;DHT22;2377;51.734;8.950;2023-08-07T08:13:48;13.60;99.90
4727;DHT22;2377;51.734;8.950;2023-08-07T08:16:16;13.60;99.90
4727;DHT22;2377;51.734;8.950;2023-08-07T08:18:43;13.60;99.90
4727;DHT22;2377;51.734;8.950;2023-08-07T08:21:10;13.60;99.90
4727;DHT22;2377;51.734;8.950;2023-08-07T08:23:37;13.70;99.90
4727;DHT22;2377;51.734;8.950;2023-08-07T08:26:05;13.80;99.90
4727;DHT22;2377;51.734;8.950;2023-08-07T08:28:32;13.80;99.90
4727;DHT22;2377;51.734;8.950;2023-08-07T08:31:01;13.80;99.90
4727;DHT22;2377;51.734;8.950;2023-08-07T08:33:28;13.80;99.90
4727;DHT22;2377;51.734;8.950;2023-08-07T08:35:55;13.80;99.90
4727;DHT22;2377;51.734;8.950;2023-08-07T08:38:22;13.90;99.90
4727;DHT22;2377;51.734;8.950;2023-08-07T08:40:51;13.90;99.90
4727;DHT22;2377;51.734;8.950;2023-08-07T08:43:20;13.90;99.90
4727;DHT22;2377;51.734;8.950;2023-08-07T08:45:48;13.90;99.90
4727;DHT22;2377;51.734;8.950;2023-08-07T08:48:19;13.90;99.90
4727;DHT22;2377;51.734;8.950;2023-08-07T08:50:49;14.00;99.90
4727;DHT22;2377;51.734;8.950;2023-08-07T08:53:20;14.00;99.90
4727;DHT22;2377;51.734;8.950;2023-08-07T08:55:50;14.00;99.90
4727;DHT22;2377;51.734;8.950;2023-08-07T08:58:17;14.00;99.90
4727;DHT22;2377;51.734;8.950;2023-08-07T09:00:48;14.10;99.90
4727;DHT22;2377;51.734;8.950;2023-08-07T09:03:18;14.10;99.90
4727;DHT22;2377;51.734;8.950;2023-08-07T09:05:46;14.20;99.90
4727;DHT22;2377;51.734;8.950;2023-08-07T09:08:14;14.30;99.90
4727;DHT22;2377;51.734;8.950;2023-08-07T09:10:42;14.50;99.90
4727;DHT22;2377;51.734;8.950;2023-08-07T09:13:14;14.70;99.90
4727;DHT22;2377;51.734;8.950;2023-08-07T09:15:44;14.80;99.90
4727;DHT22;2377;51.734;8.950;2023-08-07T09:18:17;14.80;99.90
4727;DHT22;2377;51.734;8.950;2023-08-07T09:20:46;14.70;99.90
4727;DHT22;2377;51.734;8.950;2023-08-07T09:23:15;14.80;99.90
4727;DHT22;2377;51.734;8.950;2023-08-07T09:25:43;15.00;99.90
4727;DHT22;2377;51.734;8.950;2023-08-07T09:28:11;15.00;99.90
4727;DHT22;2377;51.734;8.950;2023-08-07T09:30:38;14.90;99.90
4727;DHT22;2377;51.734;8.950;2023-08-07T09:33:09;14.90;86.10
4727;DHT22;2377;51.734;8.950;2023-08-07T09:35:39;14.90;95.80
4727;DHT22;2377;51.734;8.950;2023-08-07T09:38:07;15.00;99.90
4727;DHT22;2377;51.734;8.950;2023-08-07T09:40:34;14.90;99.90
4727;DHT22;2377;51.734;8.950;2023-08-07T09:43:02;14.80;99.90
4727;DHT22;2377;51.734;8.950;2023-08-07T09:45:29;14.80;99.90
4727;DHT22;2377;51.734;8.950;2023-08-07T09:47:58;14.80;99.90
4727;DHT22;2377;51.734;8.950;2023-08-07T09:50:27;14.70;86.50
4727;DHT22;2377;51.734;8.950;2023-08-07T09:52:56;14.70;99.90
4727;DHT22;2377;51.734;8.950;2023-08-07T09:55:24;14.60;99.90
4727;DHT22;2377;51.734;8.950;2023-08-07T09:57:52;14.60;99.90
4727;DHT22;2377;51.734;8.950;2023-08-07T10:00:20;14.70;99.90
4727;DHT22;2377;51.734;8.950;2023-08-07T10:02:48;14.80;99.90
4727;DHT22;2377;51.734;8.950;2023-08-07T10:05:16;14.70;99.90
4727;DHT22;2377;51.734;8.950;2023-08-07T10:07:44;14.80;99.90
4727;DHT22;2377;51.734;8.950;2023-08-07T10:10:14;14.80;99.90
4727;DHT22;2377;51.734;8.950;2023-08-07T10:12:41;15.10;99.90
4727;DHT22;2377;51.734;8.950;2023-08-07T10:15:11;15.20;99.90
4727;DHT22;2377;51.734;8.950;2023-08-07T10:17:39;15.10;99.90
4727;DHT22;2377;51.734;8.950;2023-08-07T10:20:09;15.20;99.90
4727;DHT22;2377;51.734;8.950;2023-08-07T10:22:38;15.20;44.50
4727;DHT22;2377;51.734;8.950;2023-08-07T10:25:08;15.10;47.70
4727;DHT22;2377;51.734;8.950;2023-08-07T10:27:38;15.10;74.90
4727;DHT22;2377;51.734;8.950;2023-08-07T10:30:11;15.00;32.30
4727;DHT22;2377;51.734;8.950;2023-08-07T10:32:41;15.10;17.70
4727;DHT22;2377;51.734;8.950;2023-08-07T10:35:23;15.10;1.00
4727;DHT22;2377;51.734;8.950;2023-08-07T10:37:52;15.10;1.00
4727;DHT22;2377;51.734;8.950;2023-08-07T10:40:20;15.30;19.80
4727;DHT22;2377;51.734;8.950;2023-08-07T10:43:00;15.40;1.00
4727;DHT22;2377;51.734;8.950;2023-08-07T10:45:39;15.50;21.70
4727;DHT22;2377;51.734;8.950;2023-08-07T10:48:07;15.60;32.30
4727;DHT22;2377;51.734;8.950;2023-08-07T10:50:49;15.80;32.50
4727;DHT22;2377;51.734;8.950;2023-08-07T10:53:29;16.00;1.50
4727;DHT22;2377;51.734;8.950;2023-08-07T10:55:57;16.20;1.00
4727;DHT22;2377;51.734;8.950;2023-08-07T10:58:29;16.30;1.00
4727;DHT22;2377;51.734;8.950;2023-08-07T11:01:19;16.30;1.00
4727;DHT22;2377;51.734;8.950;2023-08-07T11:03:52;16.00;1.00
4727;DHT22;2377;51.734;8.950;2023-08-07T11:06:24;15.80;1.00
4727;DHT22;2377;51.734;8.950;2023-08-07T11:08:53;15.70;1.00
4727;DHT22;2377;51.734;8.950;2023-08-07T11:11:20;15.50;1.00
4727;DHT22;2377;51.734;8.950;2023-08-07T11:13:49;15.30;1.00
4727;DHT22;2377;51.734;8.950;2023-08-07T11:16:17;15.30;25.30
4727;DHT22;2377;51.734;8.950;2023-08-07T11:18:47;15.40;59.70
4727;DHT22;2377;51.734;8.950;2023-08-07T11:21:15;15.80;10.90
4727;DHT22;2377;51.734;8.950;2023-08-07T11:23:43;15.90;1.00
4727;DHT22;2377;51.734;8.950;2023-08-07T11:26:12;15.80;1.00
4727;DHT22;2377;51.734;8.950;2023-08-07T11:28:39;15.80;1.00
4727;DHT22;2377;51.734;8.950;2023-08-07T11:31:08;15.70;12.60
4727;DHT22;2377;51.734;8.950;2023-08-07T11:33:36;15.60;1.00
4727;DHT22;2377;51.734;8.950;2023-08-07T11:36:10;15.30;2.60
4727;DHT22;2377;51.734;8.950;2023-08-07T11:38:40;15.00;18.60
4727;DHT22;2377;51.734;8.950;2023-08-07T11:41:09;15.00;53.50
4727;DHT22;2377;51.734;8.950;2023-08-07T11:43:38;15.00;99.90
4727;DHT22;2377;51.734;8.950;2023-08-07T11:46:08;15.10;97.90
4727;DHT22;2377;51.734;8.950;2023-08-07T11:48:37;15.30;85.80
4727;DHT22;2377;51.734;8.950;2023-08-07T11:51:07;15.60;55.40
4727;DHT22;2377;51.734;8.950;2023-08-07T11:53:36;15.60;18.30
4727;DHT22;2377;51.734;8.950;2023-08-07T11:56:06;15.80;1.00
4727;DHT22;2377;51.734;8.950;2023-08-07T11:58:36;15.70;26.50
4727;DHT22;2377;51.734;8.950;2023-08-07T12:01:04;15.60;14.40
4727;DHT22;2377;51.734;8.950;2023-08-07T12:03:40;15.50;1.00
4727;DHT22;2377;51.734;8.950;2023-08-07T12:06:09;15.50;1.00
4727;DHT22;2377;51.734;8.950;2023-08-07T12:08:38;15.30;1.00
4727;DHT22;2377;51.734;8.950;2023-08-07T12:11:08;14.90;1.00
4727;DHT22;2377;51.734;8.950;2023-08-07T12:13:37;14.70;1.00
4727;DHT22;2377;51.734;8.950;2023-08-07T12:16:06;14.90;1.00
4727;DHT22;2377;51.734;8.950;2023-08-07T12:18:34;15.00;1.00
4727;DHT22;2377;51.734;8.950;2023-08-07T12:21:07;15.10;1.00
4727;DHT22;2377;51.734;8.950;2023-08-07T12:23:36;15.10;1.00
4727;DHT22;2377;51.734;8.950;2023-08-07T12:26:04;15.00;1.00
4727;DHT22;2377;51.734;8.950;2023-08-07T12:28:32;15.00;1.00
4727;DHT22;2377;51.734;8.950;2023-08-07T12:31:01;15.00;1.00
4727;DHT22;2377;51.734;8.950;2023-08-07T12:33:29;15.00;1.00
4727;DHT22;2377;51.734;8.950;2023-08-07T12:35:58;15.10;1.00
4727;DHT22;2377;51.734;8.950;2023-08-07T12:38:27;15.20;1.00
4727;DHT22;2377;51.734;8.950;2023-08-07T12:40:55;15.20;1.00
4727;DHT22;2377;51.734;8.950;2023-08-07T12:43:22;15.30;1.00
4727;DHT22;2377;51.734;8.950;2023-08-07T12:45:50;15.30;1.00
4727;DHT22;2377;51.734;8.950;2023-08-07T12:48:18;15.50;1.00
4727;DHT22;2377;51.734;8.950;2023-08-07T12:50:45;15.50;1.00
4727;DHT22;2377;51.734;8.950;2023-08-07T12:53:12;15.50;1.00
4727;DHT22;2377;51.734;8.950;2023-08-07T12:55:41;15.60;1.00
4727;DHT22;2377;51.734;8.950;2023-08-07T12:58:08;15.50;1.00
4727;DHT22;2377;51.734;8.950;2023-08-07T13:00:35;15.50;1.00
4727;DHT22;2377;51.734;8.950;2023-08-07T13:03:03;15.60;1.00
4727;DHT22;2377;51.734;8.950;2023-08-07T13:05:30;15.60;1.00
4727;DHT22;2377;51.734;8.950;2023-08-07T13:07:57;15.60;1.00
4727;DHT22;2377;51.734;8.950;2023-08-07T13:10:25;15.50;1.00
4727;DHT22;2377;51.734;8.950;2023-08-07T13:12:55;15.60;1.00
4727;DHT22;2377;51.734;8.950;2023-08-07T13:15:22;15.60;1.00
4727;DHT22;2377;51.734;8.950;2023-08-07T13:17:50;15.70;1.00
4727;DHT22;2377;51.734;8.950;2023-08-07T13:20:17;15.80;1.00
4727;DHT22;2377;51.734;8.950;2023-08-07T13:22:46;16.00;1.00
4727;DHT22;2377;51.734;8.950;2023-08-07T13:25:13;16.20;99.90
4727;DHT22;2377;51.734;8.950;2023-08-07T13:27:41;16.30;99.90
4727;DHT22;2377;51.734;8.950;2023-08-07T13:30:10;16.30;99.90
4727;DHT22;2377;51.734;8.950;2023-08-07T13:32:38;16.30;99.90
4727;DHT22;2377;51.734;8.950;2023-08-07T13:35:06;16.20;99.90
4727;DHT22;2377;51.734;8.950;2023-08-07T13:37:34;16.10;99.90
4727;DHT22;2377;51.734;8.950;2023-08-07T13:40:04;16.10;99.90
4727;DHT22;2377;51.734;8.950;2023-08-07T13:42:33;16.10;99.90
4727;DHT22;2377;51.734;8.950;2023-08-07T13:45:00;16.10;99.90
4727;DHT22;2377;51.734;8.950;2023-08-07T13:47:29;16.10;99.90
4727;DHT22;2377;51.734;8.950;2023-08-07T13:49:56;15.90;99.90
4727;DHT22;2377;51.734;8.950;2023-08-07T13:52:23;15.70;99.90
4727;DHT22;2377;51.734;8.950;2023-08-07T13:54:51;15.60;99.90
4727;DHT22;2377;51.734;8.950;2023-08-07T13:57:18;15.60;99.90
4727;DHT22;2377;51.734;8.950;2023-08-07T13:59:45;15.60;99.90
4727;DHT22;2377;51.734;8.950;2023-08-07T14:02:12;15.70;99.90
4727;DHT22;2377;51.734;8.950;2023-08-07T14:04:41;15.80;99.90
4727;DHT22;2377;51.734;8.950;2023-08-07T14:07:10;15.80;99.90
4727;DHT22;2377;51.734;8.950;2023-08-07T14:09:38;15.80;99.90
4727;DHT22;2377;51.734;8.950;2023-08-07T14:12:06;15.80;99.90
4727;DHT22;2377;51.734;8.950;2023-08-07T14:14:34;15.90;99.90
4727;DHT22;2377;51.734;8.950;2023-08-07T14:17:02;15.90;99.90
4727;DHT22;2377;51.734;8.950;2023-08-07T14:19:29;15.90;99.90
4727;DHT22;2377;51.734;8.950;2023-08-07T14:21:58;15.90;99.90
4727;DHT22;2377;51.734;8.950;2023-08-07T14:24:25;15.90;99.90
4727;DHT22;2377;51.734;8.950;2023-08-07T14:26:52;15.90;99.90
4727;DHT22;2377;51.734;8.950;2023-08-07T14:29:19;15.90;99.90
4727;DHT22;2377;51.734;8.950;2023-08-07T14:31:47;15.90;99.90
4727;DHT22;2377;51.734;8.950;2023-08-07T14:34:14;16.00;99.90
4727;DHT22;2377;51.734;8.950;2023-08-07T14:36:41;16.10;99.90
4727;DHT22;2377;51.734;8.950;2023-08-07T14:39:09;16.20;99.90
4727;DHT22;2377;51.734;8.950;2023-08-07T14:41:37;16.30;99.90
4727;DHT22;2377;51.734;8.950;2023-08-07T14:44:04;16.40;99.90
4727;DHT22;2377;51.734;8.950;2023-08-07T14:46:31;16.40;99.90
4727;DHT22;2377;51.734;8.950;2023-08-07T14:48:58;16.50;99.90
4727;DHT22;2377;51.734;8.950;2023-08-07T14:51:25;16.50;99.90
4727;DHT22;2377;51.734;8.950;2023-08-07T14:53:53;16.50;99.90
4727;DHT22;2377;51.734;8.950;2023-08-07T14:56:21;16.50;99.90
4727;DHT22;2377;51.734;8.950;2023-08-07T14:58:49;16.50;99.90
4727;DHT22;2377;51.734;8.950;2023-08-07T15:01:16;16.50;99.90
4727;DHT22;2377;51.734;8.950;2023-08-07T15:03:43;16.60;99.90
4727;DHT22;2377;51.734;8.950;2023-08-07T15:06:10;16.70;99.90
4727;DHT22;2377;51.734;8.950;2023-08-07T15:08:38;16.80;99.90
4727;DHT22;2377;51.734;8.950;2023-08-07T15:11:05;17.00;99.90
4727;DHT22;2377;51.734;8.950;2023-08-07T15:13:33;17.00;99.90
4727;DHT22;2377;51.734;8.950;2023-08-07T15:16:00;16.80;99.90
4727;DHT22;2377;51.734;8.950;2023-08-07T15:18:28;16.80;94.90
4727;DHT22;2377;51.734;8.950;2023-08-07T15:20:55;16.70;92.10
4727;DHT22;2377;51.734;8.950;2023-08-07T15:23:23;16.60;97.90
4727;DHT22;2377;51.734;8.950;2023-08-07T15:25:50;16.50;99.90
4727;DHT22;2377;51.734;8.950;2023-08-07T15:28:17;16.40;99.90
4727;DHT22;2377;51.734;8.950;2023-08-07T15:30:48;16.30;92.40
4727;DHT22;2377;51.734;8.950;2023-08-07T15:33:17;16.50;99.90
4727;DHT22;2377;51.734;8.950;2023-08-07T15:35:45;16.50;82.30
4727;DHT22;2377;51.734;8.950;2023-08-07T15:38:12;16.60;99.90
4727;DHT22;2377;51.734;8.950;2023-08-07T15:40:40;16.60;64.90
4727;DHT22;2377;51.734;8.950;2023-08-07T15:43:08;16.60;59.20
4727;DHT22;2377;51.734;8.950;2023-08-07T15:45:36;16.50;56.90
4727;DHT22;2377;51.734;8.950;2023-08-07T15:48:05;16.40;56.30
4727;DHT22;2377;51.734;8.950;2023-08-07T15:50:34;16.30;78.20
4727;DHT22;2377;51.734;8.950;2023-08-07T15:53:04;16.20;99.90
4727;DHT22;2377;51.734;8.950;2023-08-07T15:55:31;16.30;77.20
4727;DHT22;2377;51.734;8.950;2023-08-07T15:58:01;16.50;62.50
4727;DHT22;2377;51.734;8.950;2023-08-07T16:00:29;16.60;68.30
4727;DHT22;2377;51.734;8.950;2023-08-07T16:03:00;16.60;49.50
4727;DHT22;2377;51.734;8.950;2023-08-07T16:05:29;16.80;67.60
4727;DHT22;2377;51.734;8.950;2023-08-07T16:07:56;16.70;60.40
4727;DHT22;2377;51.734;8.950;2023-08-07T16:10:24;16.70;48.80
4727;DHT22;2377;51.734;8.950;2023-08-07T16:12:52;16.70;75.60